الصفحة الرئيسية
METAR-TAF:

METAR-TAF

مطار :

أريكا, تشيلي

دائرة عرض: 18-20S, خط طول: 070-20W, ارتفاع: 58 متر

مراقبة الطقس الحالي

تاريخ ووقت الإصدار 48 دقيقة قبل الساعة 21:00UTC
ريح 10 عقدة من الجنوب/الجنوب الغربي
درجة الحرارة 16°درجة مئوية
الرطوبة 63%
ضغط 1015 hPa
الرؤية 10 كم أو أكثر
الغيوم لا تقل 1500 م ولا وجود لمزنة ركامية السحاب الأسود

METAR: SCAR 212100Z 21010KT CAVOK 16/09 Q1015

زمن: 17:48 (21:48 UTC)

توقعات

تاريخ ووقت الإصدار 5ساعات و 18 دقيقة قبل الساعة 16:30UTC
التوقعات صالحة من21 الساعة 18 UTC إلى 22 الساعة 18 UTC
ريح 12 عقدة من الجنوب الغربي
الرؤية 10 كم أو أكثر
الغيوم لا تقل 1500 م ولا وجود لمزنة ركامية السحاب الأسود
أصبح
من 21 الساعة 22 UTC إلى 22 الساعة 00 UTC
ريح 4 عقدة من الشمال/الشمال الغربي
ملبد بالغيوم على ارتفاع 2500 قدم
أصبح
من 22 الساعة 16 UTC إلى 22 الساعة 18 UTC
ريح 8 عقدة من الجنوب الغربي
غيوم مفككة على ارتفاع 3000 قدم

TAF: SCAR 211630Z 2118/2218 22012KT CAVOK TX17/2118Z TN15/2210Z BECMG 2122/2200 34004KT OVC025 BECMG 2216/2218 22008KT BKN030

أرصاد الطقس والتوقعات من أكثر من 4000 مطار (تقارير الطقس للمطار METAR والتنبؤ بالطقس بالمطارTAF).

المحطات المتاحة هي النقط الصفراء والحمراء على الخريطة.

حرك المؤشر فوق النقطة لمعرفة اسم المحطة.

ثم انقر لمعرفة أرصاد وتوقعات الطقس.

لتغيير الخارطة: اضغط على الأزرار الخضراء مع رمز الصليب الأسود للتكبير. على الزر الأخضر مع شرطة للتصغير، أو على الأسهم الخضراء للخرائط المجاورة.


METAR-TAF: